• Join FlightAware (Why Join?)
  • Login
  • US Flag 
10:44PM EDT


 

Airport Tracker/Info


-or-


 

Live Flight TrackerFlight Track Log ✈ N960DL ✈ 03-May-2013 ✈ KATL - KDFW

Flight Track Log - Related Links

Times and Time Zones

All times are in EDT time to prevent confusion due to time zone crossing. See the N960DL flight status page for this flight to view local times or setup timezone preferences in your user account.

Time Position Orientation Groundspeed Altitude Reporting Facility
EDT Latitude Longitude Course Direction KTS MPH feet Rate Location/Type
08:33PM 33.6333 -84.3833 234° Southwest 163 188 2,300  Level Atlanta TRACON
08:34PM 33.6167 -84.3167 107° East 224 258 4,500 2,400 Climbing Atlanta TRACON
08:35PM 33.5833 -84.2833 140° Southeast 247 284 7,200 2,220 Climbing Atlanta TRACON
08:37PM 33.4514 -84.3625 207° Southwest 239 275 11,900 1,740 Climbing Atlanta Center
08:38PM 33.7179 -84.7064 234° Southwest  Level FlightAware Approximate
08:38PM 33.4575 -84.4844 273° West 309 356 13,100  Level Atlanta Center
08:39PM 33.4611 -84.6289 272° West 370 426 15,500 2,340 Climbing Atlanta Center
08:40PM 33.4728 -84.7636 276° West 406 467 17,800 2,100 Climbing Atlanta Center
08:41PM 33.4844 -84.9056 276° West 422 486 19,800 1,860 Climbing Atlanta Center
08:42PM 33.4958 -85.0478 276° West 430 495 21,600 1,500 Climbing Atlanta Center
08:43PM 33.5092 -85.1922 276° West 435 501 22,900 1,500 Climbing Atlanta Center
08:44PM 33.4931 -85.3417 263° West 440 506 24,700 1,800 Climbing Atlanta Center
08:45PM 33.4728 -85.4881 261° West 445 512 26,600 1,560 Climbing Atlanta Center
08:46PM 33.4522 -85.6172 259° West 445 512 27,900 1,260 Climbing Atlanta Center
08:47PM 33.4294 -85.7639 259° West 445 512 29,200 1,320 Climbing Atlanta Center
08:48PM 33.4044 -85.9125 259° West 434 499 30,600 1,140 Climbing Atlanta Center
08:49PM 33.3833 -86.0514 260° West 428 493 31,500 1,200 Climbing Atlanta Center
08:50PM 33.3622 -86.1953 260° West 428 493 33,000 1,020 Climbing Atlanta Center
08:51PM 33.3472 -86.3317 263° West 428 493 33,600 540 Climbing Atlanta Center
08:52PM 33.3303 -86.4531 261° West 428 493 34,100 180 Climbing Atlanta Center
08:53PM 33.3128 -86.5917 261° West 422 486 34,000 -60 Descending Atlanta Center
08:54PM 33.2969 -86.7478 263° West 422 486 34,000  Level Atlanta Center
08:55PM 33.2792 -86.8839 261° West 429 494 34,000  Level Atlanta Center
08:56PM 33.2617 -87.0150 261° West 417 480 34,000  Level Atlanta Center
08:57PM 33.2419 -87.1336 259° West 410 472 34,000  Level Atlanta Center
08:58PM 33.2258 -87.2694 262° West 410 472 34,000  Level Atlanta Center
08:59PM 33.2078 -87.4031 261° West 410 472 34,000  Level Atlanta Center
09:02PM 33.1531 -87.8114 261° West 412 474 34,000  Level Memphis Center
09:03PM 33.1222 -87.9389 254° West 407 468 34,000  Level Memphis Center
09:04PM 33.0808 -88.0639 248° West 407 468 34,000  Level Memphis Center
09:05PM 33.0392 -88.1939 249° West 412 474 34,000  Level Memphis Center
09:06PM 32.9997 -88.3186 249° West 412 474 34,000  Level Memphis Center
09:07PM 32.9578 -88.4458 249° West 417 480 34,000  Level Memphis Center
09:08PM 32.9283 -88.5803 255° West 417 480 34,000  Level Memphis Center
09:09PM 32.9178 -88.7164 265° West 411 473 34,000  Level Memphis Center
09:10PM 32.9069 -88.8503 265° West 411 473 34,000  Level Memphis Center
09:11PM 32.8939 -88.9892 264° West 416 479 34,000  Level Memphis Center
09:12PM 32.8808 -89.1228 263° West 416 479 34,000  Level Memphis Center
09:13PM 32.8694 -89.2592 264° West 416 479 34,000  Level Memphis Center
09:14PM 32.8561 -89.3903 263° West 416 479 34,000  Level Memphis Center
09:15PM 32.8444 -89.5264 264° West 411 473 34,000  Level Memphis Center
09:16PM 32.8328 -89.6550 264° West 406 467 34,000  Level Memphis Center
09:17PM 32.8167 -89.7911 262° West 406 467 34,000  Level Memphis Center
09:18PM 32.8067 -89.9100 264° West 406 467 34,000  Level Memphis Center
09:19PM 32.7967 -90.0408 265° West 406 467 34,000  Level Memphis Center
09:20PM 32.7825 -90.1694 263° West 406 467 34,000  Level Memphis Center
09:21PM 32.7700 -90.3006 264° West 406 467 34,000  Level Memphis Center
09:22PM 32.7575 -90.4264 263° West 406 467 34,000  Level Memphis Center
09:23PM 32.7447 -90.5525 263° West 401 461 34,000  Level Memphis Center
09:24PM 32.7319 -90.6858 264° West 401 461 34,000  Level Memphis Center
09:25PM 32.7192 -90.8142 263° West 401 461 34,000  Level Memphis Center
09:27PM 32.6944 -91.0750 264° West 427 491 34,000  Level Fort Worth Center
09:28PM 32.6775 -91.1969 261° West 408 470 34,000  Level Fort Worth Center
09:29PM 32.6650 -91.3236 263° West 397 457 34,000  Level Fort Worth Center
09:30PM 32.6522 -91.4478 263° West 391 450 34,000  Level Fort Worth Center
09:31PM 32.6369 -91.5697 262° West 385 443 34,000  Level Fort Worth Center
09:32PM 32.6261 -91.6936 264° West 385 443 34,000  Level Fort Worth Center
09:33PM 32.6108 -91.8156 262° West 390 449 34,000  Level Fort Worth Center
09:34PM 32.5956 -91.9447 262° West 390 449 34,000  Level Fort Worth Center
09:35PM 32.5842 -92.0661 264° West 390 449 34,000  Level Fort Worth Center
09:36PM 32.5683 -92.1903 261° West 390 449 34,000  Level Fort Worth Center
09:37PM 32.5564 -92.3042 263° West 390 449 34,000  Level Fort Worth Center
09:38PM 32.5428 -92.4308 263° West 390 449 34,000  Level Fort Worth Center
09:39PM 32.5269 -92.5622 262° West 376 433 34,000  Level Fort Worth Center
09:40PM 32.5150 -92.6836 263° West 376 433 34,000  Level Fort Worth Center
09:41PM 32.4986 -92.8075 261° West 376 433 34,000  Level Fort Worth Center
09:42PM 32.4822 -92.9314 261° West 381 438 34,000  Level Fort Worth Center
09:43PM 32.4681 -93.0603 263° West 386 444 34,000  Level Fort Worth Center
09:44PM 32.4514 -93.1842 261° West 386 444 34,000  Level Fort Worth Center
09:45PM 32.4367 -93.3078 262° West 391 450 34,000  Level Fort Worth Center
09:46PM 32.4239 -93.4339 263° West 391 450 34,000  Level Fort Worth Center
09:47PM 32.4153 -93.5547 265° West 391 450 34,000  Level Fort Worth Center
09:48PM 32.4086 -93.6806 266° West 386 444 34,000  Level Fort Worth Center
09:49PM 32.3975 -93.8039 264° West 386 444 34,000  Level Fort Worth Center
09:50PM 32.3886 -93.9297 265° West 386 444 34,000  Level Fort Worth Center
09:51PM 32.3794 -94.0508 265° West 386 444 34,000  Level Fort Worth Center
09:52PM 32.3681 -94.1742 264° West 386 444 34,000  Level Fort Worth Center
09:53PM 32.3586 -94.2950 265° West 386 444 34,000  Level Fort Worth Center
09:54PM 32.3508 -94.4058 265° West 386 444 34,000  Level Fort Worth Center
09:55PM 32.3389 -94.5267 263° West 381 438 34,000  Level Fort Worth Center
09:56PM 32.3272 -94.6525 264° West 381 438 34,000  Level Fort Worth Center
09:57PM 32.3150 -94.7683 263° West 376 433 34,000  Level Fort Worth Center
09:58PM 32.3050 -94.8917 265° West 376 433 34,000  Level Fort Worth Center
09:59PM 32.3014 -95.0292 268° West 383 441 34,000  Level Fort Worth Center
10:00PM 32.2892 -95.1550 263° West 383 441 34,000  Level Fort Worth Center
10:01PM 32.2767 -95.2781 263° West 388 447 34,000 -300 Level Fort Worth Center
10:02PM 32.2683 -95.3986 265° West 388 447 33,500 -1,200 Descending Fort Worth Center
10:03PM 32.2597 -95.5192 265° West 388 447 31,700 -2,580 Descending Fort Worth Center
10:04PM 32.2719 -95.6419 277° West 378 435 28,400 -3,360 Descending Fort Worth Center
10:05PM 32.2861 -95.7619 278° West 378 435 25,000 -3,120 Descending Fort Worth Center
10:06PM 32.3022 -95.8747 280° West 373 429 22,200 -2,700 Descending Fort Worth Center
10:07PM 32.3178 -95.9753 280° West 358 412 19,700 -2,880 Descending Fort Worth Center
10:08PM 32.3339 -96.0956 279° West 348 400 16,500 -3,000 Descending Fort Worth Center
10:09PM 32.3494 -96.1936 281° West 348 400 13,700 -2,700 Descending Fort Worth Center
10:10PM 32.3653 -96.3164 279° West 343 395 11,100 -1,380 Descending Fort Worth Center
10:11PM 32.3764 -96.4072 278° West 330 380 11,000 -240 Descending Fort Worth Center
10:12PM 32.4250 -96.4756 310° West 265 305 10,700 -1,080 Descending Fort Worth Center
10:13PM 32.4692 -96.5244 317° Northwest 247 284 8,900 -1,980 Descending Fort Worth Center
10:14PM 32.5258 -96.5856 318° Northwest 248 285 6,800 -1,800 Descending Fort Worth Center
10:15PM 32.5742 -96.6369 318° Northwest 248 285 5,300 -1,260 Descending Fort Worth Center
10:16PM 32.6308 -96.6981 318° Northwest 248 285 4,300 -720 Descending Fort Worth Center
10:17PM 32.6833 -96.7500 320° Northwest 256 295 4,000 -180 Descending Dallas / Fort Worth TRACON
10:18PM 32.7333 -96.8000 320° Northwest 252 290 4,000 -360 Level Dallas / Fort Worth TRACON
10:19PM 32.7833 -96.8667 312° West 256 295 3,300 -660 Descending Dallas / Fort Worth TRACON
10:20PM 32.8167 -96.9167 308° West 199 229 2,800 -900 Descending Dallas / Fort Worth TRACON
10:21PM 32.8500 -96.9500 320° Northwest 164 189 1,600 -1,200 Descending Dallas / Fort Worth TRACON